Wilson Creek, WA (98860)

4:51 PM PDT on September 23, 2014 (GMT -0700)
Adrian | Change Station
CLOSE
Current Station
Personal Weather Station
Location: Soap Lake, WA
Elevation: 1201 ft
Nearby Weather Stations

Elev 1201 ft 47.39 °N, 119.38 °W | Updated 9 seconds ago

Overcast
Overcast
71.2 °F
Feels Like 75 °F
N
2.9
Wind Variable Wind from NE
Gusts 4.9 mph

Today
High -- | Low -- °F
--% Chance of Precip.
Yesterday
High -- | Low -- °F
Precip. -- in
6:44 AM 6:51 PM
Waning Crescent, 0% visible
Pressure 29.83 in
Visibility 10.0 miles
Clouds Overcast 10000 ft
Heat Index 75 °F
Dew Point 59 °F
Humidity 65%
Rainfall 0.00 in
Snow Depth 0 in , 3 in , 0 in
UV 1 out of 12
Pollen 6.10 out of 12
Air Quality Not available.
Flu Activity Not available.
METAR KMWH 232252Z 22005KT 10SM OVC100 24/12 A2985 RMK AO2 SLP102 T02440122

More Conditions Fewer Conditions

Pressure 29.83 in
Visibility 10.0 miles
Clouds Overcast 10000 ft
Heat Index 75 °F
Dew Point 59 °F
Humidity 65%
Rainfall 0.00 in
Snow Depth 0 in , 3 in , 0 in
UV 1 out of 12
Pollen 6.10 out of 12
Air Quality Not available.
Flu Activity Not available.
METAR KMWH 232252Z 22005KT 10SM OVC100 24/12 A2985 RMK AO2 SLP102 T02440122

More Conditions Fewer Conditions

10-Day Weather Forecast

Almanac

Astronomy

Sep. 23, 2014 Rise Set
Actual Time 6:44 AM PDT 6:51 PM PDT
Civil Twilight 6:14 AM PDT 7:22 PM PDT
Nautical Twilight 5:38 AM PDT 7:58 PM PDT
Astronomical Twilight 5:00 AM PDT 8:35 PM PDT
Moon 6:13 AM PDT 6:31 PM PDT
Length of Visible Light 13h 08m
Length of Day
12h 07m
Tomorrow will be 3m 24s shorter.
Waning Crescent, 0% of the Moon is Illuminated
Today
Waning Crescent
Sep 24
New
Oct 1
First Quarter
Oct 8
Full
Oct 15
Last Quarter

Today's Extremes

State Highs State Lows

Community

WunderPhotos

Upload Photos

1,755,821 photos uploaded!

WunderBlogs® & News

Nearby

Snow Depth

Station Depth Elevation
June Lake 0 in 3340 ft
Mf Nooksack 3 in 4980 ft
Fish Lake 0 in 3371 ft
Stampede Pass 0 in 3860 ft
Sentinel Butte 0 in 4920 ft

Earthquake Activity

City Distance Mag. Time & Date
No recent earthquake activity has been reported nearby.
Minimum magnitude displayed is 2.5.

Coastal Water Temperatures

Place Temperature
No Stations Reporting

Nearby Weather Stations